sensor_id;sensor_type;location;lat;lon;timestamp;P1;durP1;ratioP1;P2;durP2;ratioP2
73760;SDS011;69240;43.530;-5.646;2023-06-04T17:56:19;24.57;;;6.37;;
73760;SDS011;69240;43.530;-5.646;2023-06-04T17:58:57;14.95;;;5.80;;
73760;SDS011;69240;43.530;-5.646;2023-06-04T18:01:23;19.35;;;6.40;;
73760;SDS011;69240;43.530;-5.646;2023-06-04T18:03:49;16.27;;;6.30;;
73760;SDS011;69240;43.530;-5.646;2023-06-04T18:06:15;15.95;;;6.28;;
73760;SDS011;69240;43.530;-5.646;2023-06-04T18:08:44;16.25;;;6.55;;
73760;SDS011;69240;43.530;-5.646;2023-06-04T18:11:09;15.90;;;5.88;;
73760;SDS011;69240;43.530;-5.646;2023-06-04T18:13:35;19.45;;;6.65;;
73760;SDS011;69240;43.530;-5.646;2023-06-04T18:16:01;22.95;;;7.38;;
73760;SDS011;69240;43.530;-5.646;2023-06-04T18:18:26;16.23;;;6.28;;
73760;SDS011;69240;43.530;-5.646;2023-06-04T18:20:52;19.00;;;6.28;;
73760;SDS011;69240;43.530;-5.646;2023-06-04T18:23:20;18.73;;;6.70;;
73760;SDS011;69240;43.530;-5.646;2023-06-04T18:25:47;12.48;;;6.28;;
73760;SDS011;69240;43.530;-5.646;2023-06-04T18:28:18;9.95;;;5.18;;
73760;SDS011;69240;43.530;-5.646;2023-06-04T18:30:44;10.57;;;5.57;;
73760;SDS011;69240;43.530;-5.646;2023-06-04T18:33:25;12.43;;;5.68;;
73760;SDS011;69240;43.530;-5.646;2023-06-04T18:35:53;16.08;;;6.72;;
73760;SDS011;69240;43.530;-5.646;2023-06-04T18:38:19;17.60;;;6.18;;
73760;SDS011;69240;43.530;-5.646;2023-06-04T18:40:44;21.17;;;6.22;;
73760;SDS011;69240;43.530;-5.646;2023-06-04T18:43:10;22.88;;;9.13;;
73760;SDS011;69240;43.530;-5.646;2023-06-04T18:45:36;15.02;;;6.05;;
73760;SDS011;69240;43.530;-5.646;2023-06-04T18:48:01;15.88;;;6.75;;
73760;SDS011;69240;43.530;-5.646;2023-06-04T18:50:27;17.95;;;7.68;;
73760;SDS011;69240;43.530;-5.646;2023-06-04T18:52:55;18.60;;;6.82;;
73760;SDS011;69240;43.530;-5.646;2023-06-04T19:07:14;16.63;;;6.32;;
73760;SDS011;69240;43.530;-5.646;2023-06-04T19:16:05;9.38;;;5.57;;
73760;SDS011;69240;43.530;-5.646;2023-06-04T19:18:31;12.63;;;6.07;;
73760;SDS011;69240;43.530;-5.646;2023-06-04T19:20:57;19.27;;;7.05;;
73760;SDS011;69240;43.530;-5.646;2023-06-04T19:26:58;21.85;;;7.10;;
73760;SDS011;69240;43.530;-5.646;2023-06-04T19:32:55;17.65;;;7.35;;
73760;SDS011;69240;43.530;-5.646;2023-06-04T20:17:31;14.35;;;6.50;;
73760;SDS011;69240;43.530;-5.646;2023-06-04T20:23:18;11.60;;;6.07;;
73760;SDS011;69240;43.530;-5.646;2023-06-04T20:25:44;12.45;;;5.38;;
73760;SDS011;69240;43.530;-5.646;2023-06-04T20:28:09;9.02;;;5.47;;
73760;SDS011;69240;43.530;-5.646;2023-06-04T20:30:35;13.98;;;6.90;;
73760;SDS011;69240;43.530;-5.646;2023-06-04T20:33:02;16.60;;;6.60;;
73760;SDS011;69240;43.530;-5.646;2023-06-04T20:35:28;14.18;;;6.43;;
73760;SDS011;69240;43.530;-5.646;2023-06-04T20:37:53;21.63;;;7.28;;
73760;SDS011;69240;43.530;-5.646;2023-06-04T20:40:20;16.52;;;6.57;;
73760;SDS011;69240;43.530;-5.646;2023-06-04T20:42:46;17.67;;;6.53;;
73760;SDS011;69240;43.530;-5.646;2023-06-04T20:47:59;13.77;;;6.72;;
73760;SDS011;69240;43.530;-5.646;2023-06-04T20:50:25;12.82;;;6.47;;
73760;SDS011;69240;43.530;-5.646;2023-06-04T20:52:51;17.17;;;7.20;;
73760;SDS011;69240;43.530;-5.646;2023-06-04T20:55:16;15.13;;;6.28;;
73760;SDS011;69240;43.530;-5.646;2023-06-04T20:57:42;19.98;;;7.40;;
73760;SDS011;69240;43.530;-5.646;2023-06-04T21:00:08;15.05;;;6.57;;
73760;SDS011;69240;43.530;-5.646;2023-06-04T21:02:34;13.52;;;5.88;;
73760;SDS011;69240;43.530;-5.646;2023-06-04T21:10:46;12.70;;;6.15;;
73760;SDS011;69240;43.530;-5.646;2023-06-04T21:16:33;14.05;;;6.88;;
73760;SDS011;69240;43.530;-5.646;2023-06-04T21:18:59;17.02;;;6.82;;
73760;SDS011;69240;43.530;-5.646;2023-06-04T21:21:26;13.95;;;5.70;;
73760;SDS011;69240;43.530;-5.646;2023-06-04T21:23:51;11.50;;;6.28;;
73760;SDS011;69240;43.530;-5.646;2023-06-04T21:26:17;13.15;;;6.45;;
73760;SDS011;69240;43.530;-5.646;2023-06-04T21:28:43;14.18;;;6.05;;
73760;SDS011;69240;43.530;-5.646;2023-06-04T21:31:09;17.42;;;7.05;;
73760;SDS011;69240;43.530;-5.646;2023-06-04T21:33:34;12.23;;;6.10;;
73760;SDS011;69240;43.530;-5.646;2023-06-04T21:36:00;15.45;;;5.97;;
73760;SDS011;69240;43.530;-5.646;2023-06-04T21:41:29;17.42;;;7.25;;
73760;SDS011;69240;43.530;-5.646;2023-06-04T21:43:54;20.45;;;6.20;;
73760;SDS011;69240;43.530;-5.646;2023-06-04T21:46:20;15.57;;;6.30;;
73760;SDS011;69240;43.530;-5.646;2023-06-04T21:48:45;13.65;;;6.85;;
73760;SDS011;69240;43.530;-5.646;2023-06-04T21:51:11;19.35;;;7.18;;
73760;SDS011;69240;43.530;-5.646;2023-06-04T21:53:37;15.00;;;6.75;;
73760;SDS011;69240;43.530;-5.646;2023-06-04T21:56:02;15.10;;;6.55;;
73760;SDS011;69240;43.530;-5.646;2023-06-04T21:58:28;16.63;;;6.75;;
73760;SDS011;69240;43.530;-5.646;2023-06-04T22:00:54;16.55;;;7.43;;
73760;SDS011;69240;43.530;-5.646;2023-06-04T22:03:20;13.65;;;7.03;;
73760;SDS011;69240;43.530;-5.646;2023-06-04T22:05:45;12.45;;;6.43;;
73760;SDS011;69240;43.530;-5.646;2023-06-04T22:08:11;17.05;;;6.35;;
73760;SDS011;69240;43.530;-5.646;2023-06-04T22:10:38;11.73;;;6.00;;
73760;SDS011;69240;43.530;-5.646;2023-06-04T22:13:04;11.57;;;5.35;;
73760;SDS011;69240;43.530;-5.646;2023-06-04T22:15:29;15.82;;;6.75;;
73760;SDS011;69240;43.530;-5.646;2023-06-04T22:17:55;14.63;;;6.13;;
73760;SDS011;69240;43.530;-5.646;2023-06-04T22:20:29;13.38;;;6.22;;
73760;SDS011;69240;43.530;-5.646;2023-06-04T22:22:55;15.70;;;5.97;;
73760;SDS011;69240;43.530;-5.646;2023-06-04T22:25:20;13.23;;;7.13;;
73760;SDS011;69240;43.530;-5.646;2023-06-04T22:27:48;13.20;;;6.88;;
73760;SDS011;69240;43.530;-5.646;2023-06-04T22:33:35;15.88;;;7.43;;
73760;SDS011;69240;43.530;-5.646;2023-06-04T22:36:01;14.63;;;7.53;;
73760;SDS011;69240;43.530;-5.646;2023-06-04T22:38:27;17.08;;;7.35;;
73760;SDS011;69240;43.530;-5.646;2023-06-04T22:40:52;12.63;;;6.53;;
73760;SDS011;69240;43.530;-5.646;2023-06-04T22:43:18;13.45;;;7.82;;
73760;SDS011;69240;43.530;-5.646;2023-06-04T22:45:44;15.10;;;8.65;;
73760;SDS011;69240;43.530;-5.646;2023-06-04T22:48:10;16.02;;;7.38;;
73760;SDS011;69240;43.530;-5.646;2023-06-04T22:50:35;15.60;;;7.35;;
73760;SDS011;69240;43.530;-5.646;2023-06-04T22:53:02;12.27;;;7.07;;
73760;SDS011;69240;43.530;-5.646;2023-06-04T22:59:09;15.80;;;8.20;;
73760;SDS011;69240;43.530;-5.646;2023-06-04T23:01:35;15.85;;;7.93;;
73760;SDS011;69240;43.530;-5.646;2023-06-04T23:04:01;17.80;;;9.63;;
73760;SDS011;69240;43.530;-5.646;2023-06-04T23:06:27;14.18;;;8.18;;
73760;SDS011;69240;43.530;-5.646;2023-06-04T23:12:14;15.02;;;7.38;;
73760;SDS011;69240;43.530;-5.646;2023-06-04T23:14:44;16.40;;;8.65;;
73760;SDS011;69240;43.530;-5.646;2023-06-04T23:20:31;14.77;;;7.90;;
73760;SDS011;69240;43.530;-5.646;2023-06-04T23:26:17;15.00;;;8.10;;
73760;SDS011;69240;43.530;-5.646;2023-06-04T23:41:34;13.75;;;8.23;;
73760;SDS011;69240;43.530;-5.646;2023-06-04T23:44:00;15.02;;;8.18;;
73760;SDS011;69240;43.530;-5.646;2023-06-04T23:46:26;14.30;;;7.78;;
73760;SDS011;69240;43.530;-5.646;2023-06-04T23:52:13;19.63;;;9.10;;
73760;SDS011;69240;43.530;-5.646;2023-06-04T23:54:38;15.70;;;8.73;;
73760;SDS011;69240;43.530;-5.646;2023-06-04T23:57:04;17.98;;;9.32;;
73760;SDS011;69240;43.530;-5.646;2023-06-04T23:59:30;17.80;;;9.15;;
